sensor_id;sensor_type;location;lat;lon;timestamp;P1;durP1;ratioP1;P2;durP2;ratioP2
37065;SDS011;22981;43.080;25.550;2023-06-14T00:01:04;10.75;;;7.85;;
37065;SDS011;22981;43.080;25.550;2023-06-14T00:03:32;9.10;;;7.12;;
37065;SDS011;22981;43.080;25.550;2023-06-14T00:05:59;9.90;;;7.75;;
37065;SDS011;22981;43.080;25.550;2023-06-14T00:08:27;10.13;;;7.67;;
37065;SDS011;22981;43.080;25.550;2023-06-14T00:10:54;8.90;;;7.53;;
37065;SDS011;22981;43.080;25.550;2023-06-14T00:13:22;10.68;;;8.85;;
37065;SDS011;22981;43.080;25.550;2023-06-14T00:15:51;11.22;;;8.30;;
37065;SDS011;22981;43.080;25.550;2023-06-14T00:18:20;9.90;;;8.00;;
37065;SDS011;22981;43.080;25.550;2023-06-14T00:23:20;13.25;;;8.33;;
37065;SDS011;22981;43.080;25.550;2023-06-14T00:25:47;9.80;;;8.80;;
37065;SDS011;22981;43.080;25.550;2023-06-14T00:28:15;10.35;;;8.68;;
37065;SDS011;22981;43.080;25.550;2023-06-14T00:30:42;12.98;;;8.23;;
37065;SDS011;22981;43.080;25.550;2023-06-14T00:33:12;11.35;;;7.92;;
37065;SDS011;22981;43.080;25.550;2023-06-14T00:35:39;11.65;;;8.35;;
37065;SDS011;22981;43.080;25.550;2023-06-14T00:38:07;9.93;;;8.20;;
37065;SDS011;22981;43.080;25.550;2023-06-14T00:40:34;9.10;;;8.18;;
37065;SDS011;22981;43.080;25.550;2023-06-14T00:43:02;11.63;;;8.35;;
37065;SDS011;22981;43.080;25.550;2023-06-14T00:45:30;13.80;;;8.45;;
37065;SDS011;22981;43.080;25.550;2023-06-14T00:48:00;9.38;;;8.05;;
37065;SDS011;22981;43.080;25.550;2023-06-14T00:50:28;13.05;;;8.90;;
37065;SDS011;22981;43.080;25.550;2023-06-14T00:52:57;9.25;;;7.97;;
37065;SDS011;22981;43.080;25.550;2023-06-14T00:55:26;8.98;;;8.08;;
37065;SDS011;22981;43.080;25.550;2023-06-14T00:57:54;10.82;;;8.63;;
37065;SDS011;22981;43.080;25.550;2023-06-14T01:00:22;10.80;;;8.63;;
37065;SDS011;22981;43.080;25.550;2023-06-14T01:02:50;15.58;;;9.03;;
37065;SDS011;22981;43.080;25.550;2023-06-14T01:05:19;13.20;;;9.35;;
37065;SDS011;22981;43.080;25.550;2023-06-14T01:10:44;10.05;;;8.95;;
37065;SDS011;22981;43.080;25.550;2023-06-14T01:13:27;11.48;;;9.65;;
37065;SDS011;22981;43.080;25.550;2023-06-14T01:15:56;11.18;;;9.50;;
37065;SDS011;22981;43.080;25.550;2023-06-14T01:18:23;10.75;;;8.80;;
37065;SDS011;22981;43.080;25.550;2023-06-14T01:20:51;10.50;;;9.25;;
37065;SDS011;22981;43.080;25.550;2023-06-14T01:23:21;12.90;;;8.90;;
37065;SDS011;22981;43.080;25.550;2023-06-14T01:25:49;12.90;;;9.65;;
37065;SDS011;22981;43.080;25.550;2023-06-14T01:28:21;10.82;;;9.73;;
37065;SDS011;22981;43.080;25.550;2023-06-14T01:30:49;12.35;;;9.58;;
37065;SDS011;22981;43.080;25.550;2023-06-14T01:33:19;12.45;;;9.70;;
37065;SDS011;22981;43.080;25.550;2023-06-14T01:35:50;10.53;;;9.50;;
37065;SDS011;22981;43.080;25.550;2023-06-14T01:38:19;12.03;;;9.70;;
37065;SDS011;22981;43.080;25.550;2023-06-14T01:40:48;11.03;;;9.13;;
37065;SDS011;22981;43.080;25.550;2023-06-14T01:43:18;9.68;;;8.78;;
37065;SDS011;22981;43.080;25.550;2023-06-14T01:45:46;10.28;;;9.28;;
37065;SDS011;22981;43.080;25.550;2023-06-14T01:48:15;11.83;;;8.98;;
37065;SDS011;22981;43.080;25.550;2023-06-14T01:50:43;11.80;;;9.75;;
37065;SDS011;22981;43.080;25.550;2023-06-14T01:53:10;10.95;;;9.40;;
37065;SDS011;22981;43.080;25.550;2023-06-14T01:55:38;12.85;;;9.78;;
37065;SDS011;22981;43.080;25.550;2023-06-14T01:58:07;10.80;;;9.73;;
37065;SDS011;22981;43.080;25.550;2023-06-14T02:00:35;14.23;;;10.82;;
37065;SDS011;22981;43.080;25.550;2023-06-14T02:03:03;10.23;;;9.05;;
37065;SDS011;22981;43.080;25.550;2023-06-14T02:05:31;13.10;;;9.50;;
37065;SDS011;22981;43.080;25.550;2023-06-14T02:08:00;12.25;;;9.90;;
37065;SDS011;22981;43.080;25.550;2023-06-14T02:10:28;11.18;;;10.15;;
37065;SDS011;22981;43.080;25.550;2023-06-14T02:12:55;13.15;;;10.28;;
37065;SDS011;22981;43.080;25.550;2023-06-14T02:15:23;12.55;;;10.55;;
37065;SDS011;22981;43.080;25.550;2023-06-14T02:17:52;15.95;;;10.68;;
37065;SDS011;22981;43.080;25.550;2023-06-14T02:20:19;12.00;;;10.45;;
37065;SDS011;22981;43.080;25.550;2023-06-14T02:22:47;12.10;;;9.65;;
37065;SDS011;22981;43.080;25.550;2023-06-14T02:25:15;15.63;;;10.78;;
37065;SDS011;22981;43.080;25.550;2023-06-14T02:27:42;11.73;;;10.55;;
37065;SDS011;22981;43.080;25.550;2023-06-14T02:30:10;13.62;;;11.22;;
37065;SDS011;22981;43.080;25.550;2023-06-14T02:32:38;12.70;;;10.23;;
37065;SDS011;22981;43.080;25.550;2023-06-14T02:35:06;11.22;;;10.13;;
37065;SDS011;22981;43.080;25.550;2023-06-14T02:37:34;10.95;;;9.85;;
37065;SDS011;22981;43.080;25.550;2023-06-14T02:40:02;14.55;;;10.95;;
37065;SDS011;22981;43.080;25.550;2023-06-14T02:42:30;11.85;;;10.50;;
37065;SDS011;22981;43.080;25.550;2023-06-14T02:44:57;12.93;;;9.88;;
37065;SDS011;22981;43.080;25.550;2023-06-14T02:47:26;13.25;;;10.28;;
37065;SDS011;22981;43.080;25.550;2023-06-14T02:49:53;12.58;;;11.28;;
37065;SDS011;22981;43.080;25.550;2023-06-14T02:52:21;14.80;;;10.35;;
37065;SDS011;22981;43.080;25.550;2023-06-14T02:54:50;11.90;;;10.70;;
37065;SDS011;22981;43.080;25.550;2023-06-14T02:57:17;10.80;;;9.70;;
37065;SDS011;22981;43.080;25.550;2023-06-14T02:59:45;14.68;;;11.12;;
37065;SDS011;22981;43.080;25.550;2023-06-14T03:02:13;12.45;;;10.05;;
37065;SDS011;22981;43.080;25.550;2023-06-14T03:04:40;12.82;;;9.68;;
37065;SDS011;22981;43.080;25.550;2023-06-14T03:07:10;13.95;;;10.40;;
37065;SDS011;22981;43.080;25.550;2023-06-14T03:09:38;12.73;;;9.83;;
37065;SDS011;22981;43.080;25.550;2023-06-14T03:12:06;10.48;;;9.38;;
37065;SDS011;22981;43.080;25.550;2023-06-14T03:14:35;12.45;;;10.08;;
37065;SDS011;22981;43.080;25.550;2023-06-14T03:17:03;13.08;;;10.03;;
37065;SDS011;22981;43.080;25.550;2023-06-14T03:19:33;13.08;;;10.95;;
37065;SDS011;22981;43.080;25.550;2023-06-14T03:22:00;12.70;;;11.40;;
37065;SDS011;22981;43.080;25.550;2023-06-14T03:24:28;13.90;;;10.00;;
37065;SDS011;22981;43.080;25.550;2023-06-14T03:26:57;16.00;;;10.95;;
37065;SDS011;22981;43.080;25.550;2023-06-14T03:29:25;14.38;;;11.25;;
37065;SDS011;22981;43.080;25.550;2023-06-14T03:31:56;11.60;;;10.40;;
37065;SDS011;22981;43.080;25.550;2023-06-14T03:34:25;11.75;;;10.53;;
37065;SDS011;22981;43.080;25.550;2023-06-14T03:36:53;12.80;;;11.40;;
37065;SDS011;22981;43.080;25.550;2023-06-14T03:39:21;14.18;;;11.08;;
37065;SDS011;22981;43.080;25.550;2023-06-14T03:41:48;16.27;;;11.12;;
37065;SDS011;22981;43.080;25.550;2023-06-14T03:44:16;11.95;;;10.50;;
37065;SDS011;22981;43.080;25.550;2023-06-14T03:46:45;15.90;;;11.03;;
37065;SDS011;22981;43.080;25.550;2023-06-14T03:49:13;11.48;;;10.28;;
37065;SDS011;22981;43.080;25.550;2023-06-14T03:51:42;16.07;;;11.25;;
37065;SDS011;22981;43.080;25.550;2023-06-14T03:54:10;14.13;;;11.68;;
37065;SDS011;22981;43.080;25.550;2023-06-14T03:56:37;14.13;;;12.65;;
37065;SDS011;22981;43.080;25.550;2023-06-14T03:59:05;13.58;;;11.65;;
37065;SDS011;22981;43.080;25.550;2023-06-14T04:01:32;14.23;;;12.37;;
37065;SDS011;22981;43.080;25.550;2023-06-14T04:04:00;13.28;;;11.83;;
37065;SDS011;22981;43.080;25.550;2023-06-14T04:06:28;16.17;;;13.20;;
37065;SDS011;22981;43.080;25.550;2023-06-14T04:08:57;12.93;;;11.30;;
37065;SDS011;22981;43.080;25.550;2023-06-14T04:11:27;15.53;;;12.37;;
37065;SDS011;22981;43.080;25.550;2023-06-14T04:13:54;15.78;;;13.35;;
37065;SDS011;22981;43.080;25.550;2023-06-14T04:16:22;15.28;;;12.68;;
37065;SDS011;22981;43.080;25.550;2023-06-14T04:18:50;14.98;;;12.65;;
37065;SDS011;22981;43.080;25.550;2023-06-14T04:21:18;15.15;;;12.15;;
37065;SDS011;22981;43.080;25.550;2023-06-14T04:23:46;15.13;;;12.68;;
37065;SDS011;22981;43.080;25.550;2023-06-14T04:26:14;14.63;;;12.63;;
37065;SDS011;22981;43.080;25.550;2023-06-14T04:28:42;16.50;;;14.20;;
37065;SDS011;22981;43.080;25.550;2023-06-14T04:31:10;16.12;;;14.28;;
37065;SDS011;22981;43.080;25.550;2023-06-14T04:33:38;18.15;;;13.80;;
37065;SDS011;22981;43.080;25.550;2023-06-14T04:36:07;17.17;;;12.98;;
37065;SDS011;22981;43.080;25.550;2023-06-14T04:38:38;19.50;;;14.03;;
37065;SDS011;22981;43.080;25.550;2023-06-14T04:41:06;14.28;;;12.23;;
37065;SDS011;22981;43.080;25.550;2023-06-14T04:43:36;17.98;;;14.60;;
37065;SDS011;22981;43.080;25.550;2023-06-14T04:46:04;17.05;;;14.18;;
37065;SDS011;22981;43.080;25.550;2023-06-14T04:48:33;23.20;;;14.50;;
37065;SDS011;22981;43.080;25.550;2023-06-14T04:51:01;23.12;;;14.00;;
37065;SDS011;22981;43.080;25.550;2023-06-14T04:53:29;22.65;;;14.28;;
37065;SDS011;22981;43.080;25.550;2023-06-14T04:55:57;23.67;;;15.40;;
37065;SDS011;22981;43.080;25.550;2023-06-14T04:58:26;15.58;;;13.90;;
37065;SDS011;22981;43.080;25.550;2023-06-14T05:00:54;22.85;;;15.13;;
37065;SDS011;22981;43.080;25.550;2023-06-14T05:03:22;20.08;;;13.90;;
37065;SDS011;22981;43.080;25.550;2023-06-14T05:05:50;19.02;;;14.90;;
37065;SDS011;22981;43.080;25.550;2023-06-14T05:08:19;17.98;;;13.78;;
37065;SDS011;22981;43.080;25.550;2023-06-14T05:10:51;20.95;;;14.53;;
37065;SDS011;22981;43.080;25.550;2023-06-14T05:13:18;16.93;;;14.38;;
37065;SDS011;22981;43.080;25.550;2023-06-14T05:15:48;18.45;;;14.70;;
37065;SDS011;22981;43.080;25.550;2023-06-14T05:18:15;20.32;;;14.90;;
37065;SDS011;22981;43.080;25.550;2023-06-14T05:20:43;19.45;;;14.00;;
37065;SDS011;22981;43.080;25.550;2023-06-14T05:23:11;17.75;;;14.93;;
37065;SDS011;22981;43.080;25.550;2023-06-14T05:25:41;22.50;;;15.93;;
37065;SDS011;22981;43.080;25.550;2023-06-14T05:28:09;19.57;;;14.78;;
37065;SDS011;22981;43.080;25.550;2023-06-14T05:30:38;16.65;;;13.90;;
37065;SDS011;22981;43.080;25.550;2023-06-14T05:33:06;21.85;;;14.90;;
37065;SDS011;22981;43.080;25.550;2023-06-14T05:35:33;20.12;;;14.35;;
37065;SDS011;22981;43.080;25.550;2023-06-14T05:38:01;25.85;;;15.50;;
37065;SDS011;22981;43.080;25.550;2023-06-14T05:40:28;20.88;;;15.00;;
37065;SDS011;22981;43.080;25.550;2023-06-14T05:42:56;17.92;;;15.48;;
37065;SDS011;22981;43.080;25.550;2023-06-14T05:45:23;22.15;;;16.32;;
37065;SDS011;22981;43.080;25.550;2023-06-14T05:47:53;22.02;;;15.78;;
37065;SDS011;22981;43.080;25.550;2023-06-14T05:50:24;25.52;;;16.52;;
37065;SDS011;22981;43.080;25.550;2023-06-14T05:52:54;20.52;;;16.02;;
37065;SDS011;22981;43.080;25.550;2023-06-14T05:55:22;22.07;;;16.30;;
37065;SDS011;22981;43.080;25.550;2023-06-14T05:57:52;19.07;;;15.55;;
37065;SDS011;22981;43.080;25.550;2023-06-14T06:00:20;20.92;;;14.23;;
37065;SDS011;22981;43.080;25.550;2023-06-14T06:02:47;17.98;;;13.22;;
37065;SDS011;22981;43.080;25.550;2023-06-14T06:05:15;20.60;;;14.93;;
37065;SDS011;22981;43.080;25.550;2023-06-14T06:07:43;19.17;;;14.50;;
37065;SDS011;22981;43.080;25.550;2023-06-14T06:10:10;17.48;;;15.00;;
37065;SDS011;22981;43.080;25.550;2023-06-14T06:12:40;17.85;;;14.38;;
37065;SDS011;22981;43.080;25.550;2023-06-14T06:15:10;16.97;;;13.58;;
37065;SDS011;22981;43.080;25.550;2023-06-14T06:17:38;17.87;;;14.85;;
37065;SDS011;22981;43.080;25.550;2023-06-14T06:20:06;18.65;;;15.18;;
37065;SDS011;22981;43.080;25.550;2023-06-14T06:22:35;18.48;;;14.05;;
37065;SDS011;22981;43.080;25.550;2023-06-14T06:25:03;16.50;;;13.72;;
37065;SDS011;22981;43.080;25.550;2023-06-14T06:27:32;14.70;;;12.33;;
37065;SDS011;22981;43.080;25.550;2023-06-14T06:30:00;18.02;;;13.98;;
37065;SDS011;22981;43.080;25.550;2023-06-14T06:32:32;18.45;;;13.25;;
37065;SDS011;22981;43.080;25.550;2023-06-14T06:35:00;17.12;;;13.72;;
37065;SDS011;22981;43.080;25.550;2023-06-14T06:37:27;16.35;;;13.05;;
37065;SDS011;22981;43.080;25.550;2023-06-14T06:39:55;17.90;;;13.32;;
37065;SDS011;22981;43.080;25.550;2023-06-14T06:42:22;16.60;;;12.95;;
37065;SDS011;22981;43.080;25.550;2023-06-14T06:44:50;14.80;;;13.03;;
37065;SDS011;22981;43.080;25.550;2023-06-14T06:47:18;15.08;;;12.70;;
37065;SDS011;22981;43.080;25.550;2023-06-14T06:49:45;17.17;;;12.37;;
37065;SDS011;22981;43.080;25.550;2023-06-14T06:52:13;18.92;;;13.40;;
37065;SDS011;22981;43.080;25.550;2023-06-14T06:54:41;16.50;;;13.00;;
37065;SDS011;22981;43.080;25.550;2023-06-14T06:57:08;16.25;;;12.85;;
37065;SDS011;22981;43.080;25.550;2023-06-14T06:59:36;16.48;;;13.05;;
37065;SDS011;22981;43.080;25.550;2023-06-14T07:02:04;15.05;;;12.58;;
37065;SDS011;22981;43.080;25.550;2023-06-14T07:04:32;16.80;;;13.65;;
37065;SDS011;22981;43.080;25.550;2023-06-14T07:07:00;15.85;;;14.23;;
37065;SDS011;22981;43.080;25.550;2023-06-14T07:09:27;14.85;;;12.90;;
37065;SDS011;22981;43.080;25.550;2023-06-14T07:11:55;19.70;;;13.28;;
37065;SDS011;22981;43.080;25.550;2023-06-14T07:14:22;15.00;;;13.10;;
37065;SDS011;22981;43.080;25.550;2023-06-14T07:16:50;17.95;;;13.90;;
37065;SDS011;22981;43.080;25.550;2023-06-14T07:19:18;18.17;;;13.35;;
37065;SDS011;22981;43.080;25.550;2023-06-14T07:21:45;15.08;;;11.33;;
37065;SDS011;22981;43.080;25.550;2023-06-14T07:24:13;14.80;;;13.20;;
37065;SDS011;22981;43.080;25.550;2023-06-14T07:26:42;19.50;;;13.25;;
37065;SDS011;22981;43.080;25.550;2023-06-14T07:29:10;16.57;;;13.72;;
37065;SDS011;22981;43.080;25.550;2023-06-14T07:31:37;19.62;;;13.10;;
37065;SDS011;22981;43.080;25.550;2023-06-14T07:34:05;19.45;;;13.03;;
37065;SDS011;22981;43.080;25.550;2023-06-14T07:36:32;15.60;;;12.28;;
37065;SDS011;22981;43.080;25.550;2023-06-14T07:39:00;13.60;;;12.10;;
37065;SDS011;22981;43.080;25.550;2023-06-14T07:41:29;13.20;;;11.78;;
37065;SDS011;22981;43.080;25.550;2023-06-14T07:43:56;17.02;;;11.78;;
37065;SDS011;22981;43.080;25.550;2023-06-14T07:46:24;12.65;;;10.80;;
37065;SDS011;22981;43.080;25.550;2023-06-14T07:48:51;12.68;;;11.00;;
37065;SDS011;22981;43.080;25.550;2023-06-14T07:51:19;14.47;;;10.18;;
37065;SDS011;22981;43.080;25.550;2023-06-14T07:53:48;11.75;;;10.55;;
37065;SDS011;22981;43.080;25.550;2023-06-14T07:56:16;12.18;;;10.78;;
37065;SDS011;22981;43.080;25.550;2023-06-14T07:58:43;12.98;;;10.80;;
37065;SDS011;22981;43.080;25.550;2023-06-14T08:01:11;12.05;;;10.90;;
37065;SDS011;22981;43.080;25.550;2023-06-14T08:03:39;13.50;;;12.10;;
37065;SDS011;22981;43.080;25.550;2023-06-14T08:06:06;12.85;;;11.48;;
37065;SDS011;22981;43.080;25.550;2023-06-14T08:08:34;14.75;;;11.05;;
37065;SDS011;22981;43.080;25.550;2023-06-14T08:11:02;13.03;;;10.60;;
37065;SDS011;22981;43.080;25.550;2023-06-14T08:13:29;11.68;;;10.58;;
37065;SDS011;22981;43.080;25.550;2023-06-14T08:15:57;11.75;;;9.48;;
37065;SDS011;22981;43.080;25.550;2023-06-14T08:18:26;12.00;;;9.38;;
37065;SDS011;22981;43.080;25.550;2023-06-14T08:20:55;15.83;;;9.95;;
37065;SDS011;22981;43.080;25.550;2023-06-14T08:23:23;11.95;;;9.60;;
37065;SDS011;22981;43.080;25.550;2023-06-14T08:25:51;10.85;;;9.00;;
37065;SDS011;22981;43.080;25.550;2023-06-14T08:28:18;13.18;;;11.10;;
37065;SDS011;22981;43.080;25.550;2023-06-14T08:30:46;10.63;;;9.53;;
37065;SDS011;22981;43.080;25.550;2023-06-14T08:33:14;11.93;;;10.72;;
37065;SDS011;22981;43.080;25.550;2023-06-14T08:35:41;12.55;;;10.05;;
37065;SDS011;22981;43.080;25.550;2023-06-14T08:38:10;10.88;;;9.78;;
37065;SDS011;22981;43.080;25.550;2023-06-14T08:40:37;10.48;;;9.25;;
37065;SDS011;22981;43.080;25.550;2023-06-14T08:43:06;12.18;;;10.08;;
37065;SDS011;22981;43.080;25.550;2023-06-14T08:45:33;11.28;;;10.05;;
37065;SDS011;22981;43.080;25.550;2023-06-14T08:48:01;13.68;;;10.70;;
37065;SDS011;22981;43.080;25.550;2023-06-14T08:50:29;10.88;;;9.30;;
37065;SDS011;22981;43.080;25.550;2023-06-14T08:53:00;13.62;;;11.22;;
37065;SDS011;22981;43.080;25.550;2023-06-14T08:55:29;12.45;;;10.13;;
37065;SDS011;22981;43.080;25.550;2023-06-14T08:57:57;11.60;;;10.40;;
37065;SDS011;22981;43.080;25.550;2023-06-14T09:00:25;11.53;;;9.88;;
37065;SDS011;22981;43.080;25.550;2023-06-14T09:02:54;11.00;;;9.43;;
37065;SDS011;22981;43.080;25.550;2023-06-14T09:05:25;13.72;;;9.05;;
37065;SDS011;22981;43.080;25.550;2023-06-14T09:07:53;11.85;;;10.10;;
37065;SDS011;22981;43.080;25.550;2023-06-14T09:10:22;10.80;;;9.00;;
37065;SDS011;22981;43.080;25.550;2023-06-14T09:12:51;12.25;;;8.90;;
37065;SDS011;22981;43.080;25.550;2023-06-14T09:15:18;9.38;;;8.35;;
37065;SDS011;22981;43.080;25.550;2023-06-14T09:17:47;9.50;;;8.58;;
37065;SDS011;22981;43.080;25.550;2023-06-14T09:20:15;13.60;;;8.88;;
37065;SDS011;22981;43.080;25.550;2023-06-14T09:22:45;11.18;;;8.85;;
37065;SDS011;22981;43.080;25.550;2023-06-14T09:25:13;10.72;;;8.70;;
37065;SDS011;22981;43.080;25.550;2023-06-14T09:27:41;9.48;;;8.58;;
37065;SDS011;22981;43.080;25.550;2023-06-14T09:30:09;9.15;;;7.90;;
37065;SDS011;22981;43.080;25.550;2023-06-14T09:32:38;8.13;;;7.42;;
37065;SDS011;22981;43.080;25.550;2023-06-14T09:35:06;8.70;;;7.75;;
37065;SDS011;22981;43.080;25.550;2023-06-14T09:37:35;9.08;;;8.18;;
37065;SDS011;22981;43.080;25.550;2023-06-14T09:40:04;9.00;;;7.65;;
37065;SDS011;22981;43.080;25.550;2023-06-14T09:42:32;10.05;;;8.15;;
37065;SDS011;22981;43.080;25.550;2023-06-14T09:45:01;12.33;;;9.20;;
37065;SDS011;22981;43.080;25.550;2023-06-14T09:47:30;9.33;;;7.72;;
37065;SDS011;22981;43.080;25.550;2023-06-14T09:49:57;11.08;;;7.45;;
37065;SDS011;22981;43.080;25.550;2023-06-14T09:52:25;10.72;;;8.43;;
37065;SDS011;22981;43.080;25.550;2023-06-14T09:54:54;10.65;;;7.65;;
37065;SDS011;22981;43.080;25.550;2023-06-14T09:57:25;13.95;;;8.28;;
37065;SDS011;22981;43.080;25.550;2023-06-14T09:59:56;8.38;;;7.58;;
37065;SDS011;22981;43.080;25.550;2023-06-14T10:02:29;8.65;;;7.75;;
37065;SDS011;22981;43.080;25.550;2023-06-14T10:07:27;10.10;;;7.35;;
37065;SDS011;22981;43.080;25.550;2023-06-14T10:09:56;8.83;;;7.75;;
37065;SDS011;22981;43.080;25.550;2023-06-14T10:12:24;7.42;;;6.75;;
37065;SDS011;22981;43.080;25.550;2023-06-14T10:14:53;8.78;;;6.90;;
37065;SDS011;22981;43.080;25.550;2023-06-14T10:17:23;9.35;;;6.72;;
37065;SDS011;22981;43.080;25.550;2023-06-14T10:22:38;9.70;;;6.97;;
37065;SDS011;22981;43.080;25.550;2023-06-14T10:25:28;9.73;;;6.87;;
37065;SDS011;22981;43.080;25.550;2023-06-14T10:28:31;9.75;;;6.83;;
37065;SDS011;22981;43.080;25.550;2023-06-14T10:33:32;8.13;;;6.95;;
37065;SDS011;22981;43.080;25.550;2023-06-14T10:36:23;8.73;;;7.12;;
37065;SDS011;22981;43.080;25.550;2023-06-14T10:38:58;7.70;;;6.95;;
37065;SDS011;22981;43.080;25.550;2023-06-14T10:46:48;10.78;;;6.95;;
37065;SDS011;22981;43.080;25.550;2023-06-14T10:49:18;7.42;;;6.72;;
37065;SDS011;22981;43.080;25.550;2023-06-14T10:51:51;8.70;;;6.72;;
37065;SDS011;22981;43.080;25.550;2023-06-14T10:54:22;9.45;;;6.70;;
37065;SDS011;22981;43.080;25.550;2023-06-14T10:56:52;6.85;;;6.20;;
37065;SDS011;22981;43.080;25.550;2023-06-14T10:59:20;6.92;;;6.22;;
37065;SDS011;22981;43.080;25.550;2023-06-14T11:01:58;8.88;;;6.08;;
37065;SDS011;22981;43.080;25.550;2023-06-14T11:04:32;8.90;;;6.47;;
37065;SDS011;22981;43.080;25.550;2023-06-14T11:07:03;11.97;;;7.08;;
37065;SDS011;22981;43.080;25.550;2023-06-14T11:09:38;8.95;;;6.65;;
37065;SDS011;22981;43.080;25.550;2023-06-14T11:12:17;8.40;;;6.37;;
37065;SDS011;22981;43.080;25.550;2023-06-14T11:14:46;8.38;;;6.67;;
37065;SDS011;22981;43.080;25.550;2023-06-14T11:17:14;7.05;;;6.35;;
37065;SDS011;22981;43.080;25.550;2023-06-14T11:19:41;7.12;;;6.42;;
37065;SDS011;22981;43.080;25.550;2023-06-14T11:22:10;9.23;;;6.47;;
37065;SDS011;22981;43.080;25.550;2023-06-14T11:24:40;7.33;;;6.67;;
37065;SDS011;22981;43.080;25.550;2023-06-14T11:27:10;8.75;;;6.53;;
37065;SDS011;22981;43.080;25.550;2023-06-14T11:29:38;7.87;;;5.87;;
37065;SDS011;22981;43.080;25.550;2023-06-14T11:32:07;6.03;;;5.40;;
37065;SDS011;22981;43.080;25.550;2023-06-14T11:34:36;7.37;;;5.78;;
37065;SDS011;22981;43.080;25.550;2023-06-14T11:37:04;6.22;;;5.62;;
37065;SDS011;22981;43.080;25.550;2023-06-14T11:39:32;7.62;;;5.62;;
37065;SDS011;22981;43.080;25.550;2023-06-14T11:41:59;7.87;;;5.87;;
37065;SDS011;22981;43.080;25.550;2023-06-14T11:44:29;7.83;;;5.97;;
37065;SDS011;22981;43.080;25.550;2023-06-14T11:46:59;7.08;;;4.95;;
37065;SDS011;22981;43.080;25.550;2023-06-14T11:49:28;6.28;;;5.10;;
37065;SDS011;22981;43.080;25.550;2023-06-14T11:51:55;7.75;;;6.20;;
37065;SDS011;22981;43.080;25.550;2023-06-14T11:54:23;10.75;;;6.20;;
37065;SDS011;22981;43.080;25.550;2023-06-14T11:56:50;5.75;;;5.25;;
37065;SDS011;22981;43.080;25.550;2023-06-14T11:59:18;7.35;;;5.08;;
37065;SDS011;22981;43.080;25.550;2023-06-14T12:01:47;9.23;;;6.25;;
37065;SDS011;22981;43.080;25.550;2023-06-14T12:04:22;7.95;;;5.50;;
37065;SDS011;22981;43.080;25.550;2023-06-14T12:06:51;5.78;;;4.72;;
37065;SDS011;22981;43.080;25.550;2023-06-14T12:09:21;6.80;;;5.20;;
37065;SDS011;22981;43.080;25.550;2023-06-14T12:11:49;6.55;;;5.00;;
37065;SDS011;22981;43.080;25.550;2023-06-14T12:14:17;5.87;;;5.05;;
37065;SDS011;22981;43.080;25.550;2023-06-14T12:16:44;6.42;;;5.05;;
37065;SDS011;22981;43.080;25.550;2023-06-14T12:19:13;7.60;;;5.17;;
37065;SDS011;22981;43.080;25.550;2023-06-14T12:21:42;7.53;;;4.92;;
37065;SDS011;22981;43.080;25.550;2023-06-14T12:24:13;4.90;;;4.30;;
37065;SDS011;22981;43.080;25.550;2023-06-14T12:26:41;4.85;;;4.45;;
37065;SDS011;22981;43.080;25.550;2023-06-14T12:29:09;4.95;;;4.33;;
37065;SDS011;22981;43.080;25.550;2023-06-14T12:31:37;8.03;;;4.35;;
37065;SDS011;22981;43.080;25.550;2023-06-14T12:34:05;6.72;;;4.10;;
37065;SDS011;22981;43.080;25.550;2023-06-14T12:36:34;5.40;;;3.85;;
37065;SDS011;22981;43.080;25.550;2023-06-14T12:39:03;4.22;;;3.90;;
37065;SDS011;22981;43.080;25.550;2023-06-14T12:41:31;4.80;;;4.30;;
37065;SDS011;22981;43.080;25.550;2023-06-14T12:43:59;8.25;;;4.47;;
37065;SDS011;22981;43.080;25.550;2023-06-14T12:46:29;5.08;;;3.72;;
37065;SDS011;22981;43.080;25.550;2023-06-14T12:48:58;5.78;;;3.27;;
37065;SDS011;22981;43.080;25.550;2023-06-14T12:51:25;4.10;;;3.70;;
37065;SDS011;22981;43.080;25.550;2023-06-14T12:53:53;4.08;;;3.67;;
37065;SDS011;22981;43.080;25.550;2023-06-14T12:56:20;6.55;;;3.40;;
37065;SDS011;22981;43.080;25.550;2023-06-14T12:58:48;4.85;;;3.67;;
37065;SDS011;22981;43.080;25.550;2023-06-14T13:01:15;5.62;;;3.95;;
37065;SDS011;22981;43.080;25.550;2023-06-14T13:03:43;4.45;;;3.40;;
37065;SDS011;22981;43.080;25.550;2023-06-14T13:06:11;6.35;;;3.92;;
37065;SDS011;22981;43.080;25.550;2023-06-14T13:08:39;4.87;;;3.62;;
37065;SDS011;22981;43.080;25.550;2023-06-14T13:11:07;5.30;;;3.33;;
37065;SDS011;22981;43.080;25.550;2023-06-14T13:13:35;5.20;;;3.47;;
37065;SDS011;22981;43.080;25.550;2023-06-14T13:16:02;5.55;;;3.65;;
37065;SDS011;22981;43.080;25.550;2023-06-14T13:18:30;4.15;;;3.60;;
37065;SDS011;22981;43.080;25.550;2023-06-14T13:20:59;3.90;;;3.60;;
37065;SDS011;22981;43.080;25.550;2023-06-14T13:23:29;4.95;;;3.60;;
37065;SDS011;22981;43.080;25.550;2023-06-14T13:26:02;8.78;;;4.00;;
37065;SDS011;22981;43.080;25.550;2023-06-14T13:28:30;5.97;;;3.77;;
37065;SDS011;22981;43.080;25.550;2023-06-14T13:30:58;3.85;;;3.47;;
37065;SDS011;22981;43.080;25.550;2023-06-14T13:33:26;4.62;;;3.52;;
37065;SDS011;22981;43.080;25.550;2023-06-14T13:35:53;4.15;;;3.52;;
37065;SDS011;22981;43.080;25.550;2023-06-14T13:38:21;7.87;;;3.90;;
37065;SDS011;22981;43.080;25.550;2023-06-14T13:40:48;5.78;;;4.05;;
37065;SDS011;22981;43.080;25.550;2023-06-14T13:43:16;4.50;;;4.10;;
37065;SDS011;22981;43.080;25.550;2023-06-14T13:45:43;6.40;;;4.12;;
37065;SDS011;22981;43.080;25.550;2023-06-14T13:48:11;5.45;;;4.15;;
37065;SDS011;22981;43.080;25.550;2023-06-14T13:50:39;9.58;;;4.28;;
37065;SDS011;22981;43.080;25.550;2023-06-14T13:53:07;4.30;;;3.90;;
37065;SDS011;22981;43.080;25.550;2023-06-14T13:55:34;5.45;;;3.90;;
37065;SDS011;22981;43.080;25.550;2023-06-14T13:58:02;5.50;;;4.17;;
37065;SDS011;22981;43.080;25.550;2023-06-14T14:00:30;4.78;;;3.85;;
37065;SDS011;22981;43.080;25.550;2023-06-14T14:02:57;5.22;;;4.28;;
37065;SDS011;22981;43.080;25.550;2023-06-14T14:05:25;5.47;;;3.75;;
37065;SDS011;22981;43.080;25.550;2023-06-14T14:07:54;4.83;;;3.87;;
37065;SDS011;22981;43.080;25.550;2023-06-14T14:10:23;6.17;;;4.03;;
37065;SDS011;22981;43.080;25.550;2023-06-14T14:12:51;4.22;;;3.80;;
37065;SDS011;22981;43.080;25.550;2023-06-14T14:15:20;4.90;;;3.70;;
37065;SDS011;22981;43.080;25.550;2023-06-14T14:17:47;6.00;;;4.47;;
37065;SDS011;22981;43.080;25.550;2023-06-14T14:20:15;4.20;;;3.85;;
37065;SDS011;22981;43.080;25.550;2023-06-14T14:22:43;5.28;;;3.98;;
37065;SDS011;22981;43.080;25.550;2023-06-14T14:25:10;5.22;;;3.35;;
37065;SDS011;22981;43.080;25.550;2023-06-14T14:27:38;4.22;;;3.60;;
37065;SDS011;22981;43.080;25.550;2023-06-14T14:30:06;4.80;;;3.60;;
37065;SDS011;22981;43.080;25.550;2023-06-14T14:32:34;5.62;;;3.55;;
37065;SDS011;22981;43.080;25.550;2023-06-14T14:35:01;5.08;;;3.50;;
37065;SDS011;22981;43.080;25.550;2023-06-14T14:37:29;9.73;;;3.75;;
37065;SDS011;22981;43.080;25.550;2023-06-14T14:39:56;4.30;;;3.45;;
37065;SDS011;22981;43.080;25.550;2023-06-14T14:42:24;6.03;;;3.67;;
37065;SDS011;22981;43.080;25.550;2023-06-14T14:44:52;5.92;;;3.85;;
37065;SDS011;22981;43.080;25.550;2023-06-14T14:47:20;6.78;;;3.40;;